Time;durP1;ratioP1;P1;durP2;ratioP2;P2;SDS_P1;SDS_P2;PMS_P1;PMS_P2;Temp;Humidity;BMP_temperature;BMP_pressure;BME280_temperature;BME280_humidity;BME280_pressure;Samples;Min_cycle;Max_cycle;Signal;HPM_P1;HPM_P2
2021/04/30 00:01:02;;;;;;;3.30;3.10;;;;;;;7.53;59.92;95937.03;5084216;28;20055;-75
2021/04/30 00:03:28;;;;;;;3.35;3.15;;;;;;;7.55;59.95;95942.03;5086475;28;20032;-77
2021/04/30 00:05:54;;;;;;;3.97;3.67;;;;;;;7.52;59.57;95940.66;5087365;28;20036;-77
2021/04/30 00:08:20;;;;;;;3.85;3.53;;;;;;;7.51;59.66;95946.06;5086306;28;20063;-77
2021/04/30 00:10:47;;;;;;;3.92;3.63;;;;;;;7.48;59.58;95941.28;5086394;28;20039;-77
2021/04/30 00:13:13;;;;;;;3.63;3.33;;;;;;;7.46;59.74;95949.31;5084664;28;20373;-77
2021/04/30 00:15:40;;;;;;;3.88;3.58;;;;;;;7.47;59.67;95947.50;5083732;28;20366;-77
2021/04/30 00:18:06;;;;;;;3.65;3.35;;;;;;;7.46;59.58;95932.88;5085064;28;20065;-76
2021/04/30 00:20:35;;;;;;;3.63;3.38;;;;;;;7.45;59.54;95932.06;5089953;28;20049;-76
2021/04/30 00:23:02;;;;;;;3.58;3.30;;;;;;;7.44;59.46;95935.69;5089540;28;20118;-76
2021/04/30 00:25:28;;;;;;;3.55;3.35;;;;;;;7.43;59.43;95941.09;5081967;28;20043;-76
2021/04/30 00:28:12;;;;;;;3.28;3.08;;;;;;;7.41;59.41;95936.13;5081646;28;20396;-76
2021/04/30 00:30:39;;;;;;;3.85;3.55;;;;;;;7.40;59.36;95939.72;5064929;28;20401;-75
2021/04/30 00:33:05;;;;;;;3.95;3.70;;;;;;;7.39;59.33;95926.88;5087606;28;20037;-75
2021/04/30 00:35:31;;;;;;;3.58;3.38;;;;;;;7.35;59.44;95936.97;5084763;28;20468;-77
2021/04/30 00:37:58;;;;;;;3.35;3.15;;;;;;;7.30;59.33;95932.34;5081685;28;20047;-76
2021/04/30 00:40:24;;;;;;;3.65;3.45;;;;;;;7.29;59.51;95932.56;5084587;28;20028;-79
2021/04/30 00:43:01;;;;;;;4.15;3.85;;;;;;;7.28;59.36;95942.19;5080893;28;20055;-79
2021/04/30 00:45:31;;;;;;;3.38;3.17;;;;;;;7.28;59.60;95938.78;5089639;28;20428;-79
2021/04/30 00:47:58;;;;;;;4.15;3.85;;;;;;;7.27;59.38;95934.59;5084163;28;20028;-79
2021/04/30 00:50:26;;;;;;;3.85;3.55;;;;;;;7.25;59.45;95940.00;5064507;28;20035;-79
2021/04/30 00:52:53;;;;;;;4.47;4.07;;;;;;;7.24;59.34;95935.78;5078197;28;20044;-79
2021/04/30 00:55:21;;;;;;;3.72;3.53;;;;;;;7.21;59.33;95927.59;5085596;28;20385;-79
2021/04/30 00:57:51;;;;;;;3.78;3.58;;;;;;;7.20;59.45;95937.25;5087928;28;20051;-79
2021/04/30 01:00:18;;;;;;;5.28;3.75;;;;;;;7.21;59.43;95940.63;5080365;28;20036;-78
2021/04/30 01:02:44;;;;;;;3.80;3.50;;;;;;;7.23;59.55;95942.03;5078693;28;20048;-79
2021/04/30 01:05:11;;;;;;;3.92;3.63;;;;;;;7.20;59.35;95945.06;5086435;28;20033;-79
2021/04/30 01:07:38;;;;;;;3.85;3.58;;;;;;;7.21;59.44;95940.63;5089406;28;20035;-77
2021/04/30 01:10:06;;;;;;;4.18;3.83;;;;;;;7.20;59.41;95939.84;5081629;28;20036;-76
2021/04/30 01:12:33;;;;;;;4.68;3.85;;;;;;;7.22;59.57;95952.66;5079448;28;20040;-77
2021/04/30 01:15:00;;;;;;;3.85;3.55;;;;;;;7.22;59.48;95950.06;5083897;28;20041;-76
2021/04/30 01:17:26;;;;;;;4.22;3.92;;;;;;;7.23;59.17;95947.25;5083916;28;20036;-76
2021/04/30 01:19:57;;;;;;;4.28;3.97;;;;;;;7.23;59.41;95947.25;5087654;28;20044;-78
2021/04/30 01:22:41;;;;;;;3.90;3.60;;;;;;;7.20;59.17;95944.25;5080479;28;20043;-78
2021/04/30 01:25:11;;;;;;;4.60;4.30;;;;;;;7.16;59.18;95956.91;5085099;28;20044;-78
2021/04/30 01:27:38;;;;;;;4.15;3.85;;;;;;;7.16;59.37;95964.75;5077987;28;20037;-78
2021/04/30 01:30:08;;;;;;;4.72;4.40;;;;;;;7.19;59.57;95971.34;5089788;28;20051;-78
2021/04/30 01:32:34;;;;;;;4.22;3.92;;;;;;;7.19;59.43;95973.94;5082422;28;20047;-78
2021/04/30 01:35:01;;;;;;;4.85;4.45;;;;;;;7.19;59.52;95977.34;5083276;28;20056;-78
2021/04/30 01:37:28;;;;;;;4.88;4.47;;;;;;;7.17;59.63;95978.56;5082914;28;20033;-78
2021/04/30 01:39:54;;;;;;;5.25;4.85;;;;;;;7.16;59.69;95969.94;5081280;28;20035;-79
2021/04/30 01:42:20;;;;;;;7.10;5.32;;;;;;;7.17;60.00;95976.75;5084363;28;20040;-79
2021/04/30 01:44:50;;;;;;;5.65;5.15;;;;;;;7.17;60.69;95966.31;5084606;28;20032;-76
2021/04/30 01:47:17;;;;;;;5.63;5.05;;;;;;;7.17;60.10;95955.09;5082113;28;20040;-76
2021/04/30 01:49:44;;;;;;;5.72;5.32;;;;;;;7.14;60.18;95952.91;5088763;28;20043;-77
2021/04/30 01:52:11;;;;;;;5.43;5.03;;;;;;;7.09;60.38;95951.72;5081679;28;20396;-78
2021/04/30 01:54:37;;;;;;;5.63;5.13;;;;;;;7.06;60.55;95952.13;5083050;28;20032;-79
2021/04/30 01:57:07;;;;;;;5.32;4.93;;;;;;;7.06;60.73;95952.13;5078812;28;20040;-79
2021/04/30 01:59:33;;;;;;;5.35;4.95;;;;;;;7.08;61.07;95959.75;5081244;28;20500;-78
2021/04/30 02:01:59;;;;;;;5.05;4.75;;;;;;;7.09;61.17;95959.53;5089725;28;20485;-79
2021/04/30 02:04:26;;;;;;;5.70;5.22;;;;;;;7.07;61.12;95966.75;5080118;28;20032;-78
2021/04/30 02:06:52;;;;;;;5.47;5.07;;;;;;;7.08;61.24;95964.97;5081762;28;20051;-78
2021/04/30 02:09:18;;;;;;;6.03;5.63;;;;;;;7.07;61.37;95960.75;5079225;28;20507;-78
2021/04/30 02:11:44;;;;;;;5.40;5.00;;;;;;;7.02;61.54;95964.00;5087122;28;20036;-78
2021/04/30 02:14:10;;;;;;;5.55;5.15;;;;;;;7.02;61.62;95971.00;5082154;28;20048;-78
2021/04/30 02:16:37;;;;;;;5.70;5.20;;;;;;;7.00;61.81;95962.59;5077536;28;20028;-78
2021/04/30 02:19:09;;;;;;;5.18;4.82;;;;;;;6.93;61.56;95960.03;5082601;28;20057;-77
2021/04/30 02:21:35;;;;;;;5.47;5.05;;;;;;;6.88;62.01;95967.66;5085040;28;20049;-79
2021/04/30 02:24:01;;;;;;;5.10;4.70;;;;;;;6.87;61.88;95948.59;5083727;28;20047;-79
2021/04/30 02:26:29;;;;;;;5.25;4.93;;;;;;;6.83;62.06;95941.41;5081847;28;20435;-77
2021/04/30 02:28:55;;;;;;;5.78;5.28;;;;;;;6.81;62.05;95938.22;5083467;28;20043;-78
2021/04/30 02:31:21;;;;;;;6.28;5.68;;;;;;;6.77;62.16;95943.03;5081776;28;20067;-78
2021/04/30 02:33:48;;;;;;;6.20;5.70;;;;;;;6.73;62.25;95941.84;5083326;28;20040;-77
2021/04/30 02:36:14;;;;;;;6.07;5.57;;;;;;;6.71;62.56;95936.81;5079724;28;20469;-83
2021/04/30 02:38:40;;;;;;;5.53;5.07;;;;;;;6.75;62.58;95936.44;5085898;28;20040;-80
2021/04/30 02:41:06;;;;;;;5.70;5.30;;;;;;;6.75;62.61;95931.22;5082833;28;20029;-79
2021/04/30 02:43:32;;;;;;;5.82;5.22;;;;;;;6.75;62.77;95932.00;5081244;28;20376;-80
2021/04/30 02:46:00;;;;;;;6.38;5.88;;;;;;;6.77;62.68;95942.22;5059516;28;20461;-79
2021/04/30 02:50:54;;;;;;;6.05;5.65;;;;;;;6.70;62.67;95939.66;5087520;28;20456;-80
2021/04/30 02:53:20;;;;;;;5.80;5.40;;;;;;;6.66;62.66;95939.25;5083167;28;20412;-80
2021/04/30 02:55:46;;;;;;;5.80;5.30;;;;;;;6.68;62.89;95949.47;5075870;28;20063;-80
2021/04/30 02:58:12;;;;;;;5.65;5.25;;;;;;;6.69;62.91;95957.06;5082142;28;20048;-79
2021/04/30 03:00:39;;;;;;;5.75;5.25;;;;;;;6.73;63.01;95956.69;5070491;28;20036;-80
2021/04/30 03:03:06;;;;;;;6.55;5.95;;;;;;;6.74;62.94;95955.66;5083916;28;20051;-80
2021/04/30 03:05:32;;;;;;;6.40;5.90;;;;;;;6.75;62.84;95965.09;5077110;28;20049;-80
2021/04/30 03:07:58;;;;;;;6.10;5.60;;;;;;;6.72;62.78;95961.09;5082804;28;20041;-80
2021/04/30 03:10:25;;;;;;;6.60;6.10;;;;;;;6.73;63.08;95973.09;5092948;28;20032;-80
2021/04/30 03:12:51;;;;;;;6.20;5.70;;;;;;;6.76;62.98;95967.50;5091407;28;20385;-80
2021/04/30 03:15:18;;;;;;;6.78;5.68;;;;;;;6.78;62.79;95967.28;5085616;28;20043;-80
2021/04/30 03:17:46;;;;;;;6.40;5.90;;;;;;;6.76;62.58;95962.28;5082435;28;20058;-80
2021/04/30 03:20:14;;;;;;;7.38;6.72;;;;;;;6.70;62.73;95965.72;5086615;28;20079;-80
2021/04/30 03:22:40;;;;;;;6.15;5.70;;;;;;;6.66;62.83;95952.28;5083957;28;20047;-79
2021/04/30 03:25:08;;;;;;;6.45;5.85;;;;;;;6.67;63.02;95943.44;5088041;28;20044;-79
2021/04/30 03:27:35;;;;;;;6.15;5.75;;;;;;;6.70;63.09;95937.84;5085474;28;20036;-79
2021/04/30 03:30:03;;;;;;;6.63;6.10;;;;;;;6.72;63.05;95932.44;5088352;28;20047;-80
2021/04/30 03:32:29;;;;;;;6.25;5.72;;;;;;;6.71;63.23;95925.59;5084258;28;20039;-80
2021/04/30 03:34:56;;;;;;;6.35;5.85;;;;;;;6.71;63.18;95931.59;5082770;28;20024;-80
2021/04/30 03:37:22;;;;;;;6.43;5.93;;;;;;;6.71;63.17;95929.00;5088598;28;20047;-80
2021/04/30 03:39:49;;;;;;;6.65;6.13;;;;;;;6.67;63.10;95922.59;5086339;28;20500;-80
2021/04/30 03:42:16;;;;;;;6.47;5.97;;;;;;;6.65;62.96;95939.44;5080153;28;20032;-80
2021/04/30 03:44:43;;;;;;;6.50;6.00;;;;;;;6.63;63.17;95931.84;5088942;28;20032;-77
2021/04/30 03:47:11;;;;;;;6.68;6.18;;;;;;;6.62;63.12;95919.81;5088857;28;20055;-76
2021/04/30 03:50:03;;;;;;;6.60;6.05;;;;;;;6.62;63.21;95924.25;5091151;27;20359;-79
2021/04/30 03:52:35;;;;;;;6.28;5.78;;;;;;;6.62;63.40;95926.84;5090680;28;20036;-77
2021/04/30 03:55:02;;;;;;;6.53;5.93;;;;;;;6.58;63.32;95930.88;5090649;28;20040;-77
2021/04/30 03:57:28;;;;;;;6.40;5.90;;;;;;;6.56;63.19;95930.28;5090417;28;20041;-77
2021/04/30 03:59:54;;;;;;;7.10;6.50;;;;;;;6.46;63.14;95931.47;5089638;28;20037;-78
2021/04/30 04:02:20;;;;;;;7.22;6.63;;;;;;;6.43;63.35;95928.50;5090550;28;20465;-78
2021/04/30 04:04:46;;;;;;;6.55;5.95;;;;;;;6.42;63.44;95929.50;5090602;28;20044;-79
2021/04/30 04:07:13;;;;;;;7.22;6.70;;;;;;;6.43;63.52;95941.53;5090945;28;20040;-79
2021/04/30 04:09:39;;;;;;;6.50;5.90;;;;;;;6.42;63.78;95939.91;5090493;28;20047;-78
2021/04/30 04:12:08;;;;;;;7.00;6.38;;;;;;;6.43;63.84;95933.72;5090594;28;20370;-78
2021/04/30 04:14:42;;;;;;;6.97;6.38;;;;;;;6.45;63.78;95929.09;5088964;28;20055;-78
2021/04/30 04:17:09;;;;;;;7.00;6.40;;;;;;;6.46;63.95;95923.66;5090075;28;20491;-79
2021/04/30 04:19:35;;;;;;;7.20;6.60;;;;;;;6.48;64.05;95920.88;5089945;28;20473;-79
2021/04/30 04:22:01;;;;;;;7.45;6.85;;;;;;;6.49;64.00;95915.47;5076728;28;20044;-77
2021/04/30 04:24:27;;;;;;;6.78;6.22;;;;;;;6.53;64.13;95913.25;5090438;28;20048;-79
2021/04/30 04:26:53;;;;;;;7.97;7.15;;;;;;;6.53;64.15;95908.03;5089951;28;20388;-83
2021/04/30 04:29:19;;;;;;;6.82;6.22;;;;;;;6.55;64.04;95920.84;5088955;28;20392;-78
2021/04/30 04:31:46;;;;;;;6.82;6.22;;;;;;;6.55;63.88;95923.44;5089850;28;20075;-78
2021/04/30 04:34:12;;;;;;;6.68;6.18;;;;;;;6.55;63.79;95929.47;5089954;28;20047;-79
2021/04/30 04:36:38;;;;;;;6.57;6.07;;;;;;;6.57;63.81;95944.88;5089450;28;20050;-80
2021/04/30 04:39:05;;;;;;;6.80;6.25;;;;;;;6.59;63.69;95943.66;5090329;28;20047;-80
2021/04/30 04:41:31;;;;;;;6.68;6.13;;;;;;;6.60;63.51;95942.69;5089896;28;20047;-80
2021/04/30 04:43:57;;;;;;;5.82;5.43;;;;;;;6.60;63.46;95945.28;5090158;28;20047;-80
2021/04/30 04:46:23;;;;;;;7.40;6.00;;;;;;;6.64;63.53;95946.47;5089827;28;20036;-80
2021/04/30 04:48:50;;;;;;;6.43;5.93;;;;;;;6.69;63.67;95951.06;5088118;28;20055;-80
2021/04/30 04:51:17;;;;;;;7.43;6.82;;;;;;;6.76;63.50;95958.84;5090387;28;20044;-79
2021/04/30 04:53:43;;;;;;;6.97;6.43;;;;;;;6.79;63.60;95964.47;5090005;28;20036;-78
2021/04/30 04:56:09;;;;;;;7.05;6.43;;;;;;;6.85;63.55;95961.03;5089468;28;20373;-78
2021/04/30 04:58:35;;;;;;;6.40;5.70;;;;;;;6.89;63.33;95953.63;5089769;28;20055;-78
2021/04/30 05:01:02;;;;;;;6.82;6.22;;;;;;;6.91;63.21;95949.00;5076916;28;20044;-78
2021/04/30 05:03:28;;;;;;;6.57;6.07;;;;;;;6.94;63.13;95948.56;5075337;28;20045;-79
2021/04/30 05:05:54;;;;;;;6.22;5.72;;;;;;;6.96;63.03;95943.97;5075778;28;20045;-80
2021/04/30 05:08:21;;;;;;;6.95;6.38;;;;;;;6.99;62.89;95951.38;5075724;28;20055;-79
2021/04/30 05:10:47;;;;;;;6.32;5.72;;;;;;;7.01;62.88;95954.56;5075766;28;20044;-79
2021/04/30 05:13:13;;;;;;;6.43;5.93;;;;;;;7.04;62.86;95954.16;5075692;28;20041;-78
2021/04/30 05:15:39;;;;;;;6.13;5.63;;;;;;;7.06;62.77;95946.13;5075969;28;20404;-80
2021/04/30 05:18:06;;;;;;;6.75;6.22;;;;;;;7.10;62.76;95948.09;5075526;28;20051;-81
2021/04/30 05:20:32;;;;;;;6.32;5.82;;;;;;;7.13;62.34;95948.69;5075604;28;20033;-79
2021/04/30 05:23:00;;;;;;;6.38;5.88;;;;;;;7.13;62.32;95943.50;5075649;28;20040;-79
2021/04/30 05:25:26;;;;;;;6.78;6.28;;;;;;;7.13;62.37;95946.88;5074815;28;20040;-78
2021/04/30 05:27:52;;;;;;;6.55;6.00;;;;;;;7.11;62.14;95946.28;5075796;28;20037;-78
2021/04/30 05:30:18;;;;;;;6.88;6.28;;;;;;;7.11;62.11;95951.50;5075081;28;20404;-78
2021/04/30 05:32:45;;;;;;;6.57;5.63;;;;;;;7.11;62.19;95962.72;5075195;28;20053;-78
2021/04/30 05:35:12;;;;;;;6.72;6.22;;;;;;;7.10;62.10;95944.72;5074207;28;20041;-82
2021/04/30 05:37:39;;;;;;;6.63;5.93;;;;;;;7.08;61.87;95938.91;5075478;28;20037;-78
2021/04/30 05:40:06;;;;;;;6.63;6.03;;;;;;;7.09;61.90;95930.84;5075443;28;20461;-79
2021/04/30 05:42:32;;;;;;;6.97;6.28;;;;;;;7.10;61.80;95913.41;5075380;28;20044;-77
2021/04/30 05:45:00;;;;;;;7.72;7.05;;;;;;;7.14;61.97;95916.38;5074743;28;20044;-77
2021/04/30 05:47:26;;;;;;;7.22;6.63;;;;;;;7.14;61.79;95913.78;5074984;28;20048;-78
2021/04/30 05:49:52;;;;;;;7.80;6.57;;;;;;;7.16;61.84;95906.56;5074234;28;20401;-79
2021/04/30 05:52:18;;;;;;;7.38;6.78;;;;;;;7.17;61.71;95902.94;5073584;28;20044;-79
2021/04/30 05:54:45;;;;;;;8.00;7.20;;;;;;;7.19;61.86;95914.75;5074974;28;20033;-79
2021/04/30 05:57:11;;;;;;;7.78;7.07;;;;;;;7.20;61.76;95910.34;5074996;28;20393;-78
2021/04/30 05:59:37;;;;;;;7.80;7.10;;;;;;;7.21;61.71;95911.97;5075128;28;20040;-79
2021/04/30 06:02:03;;;;;;;7.57;6.97;;;;;;;7.20;61.69;95913.78;5074545;28;20032;-79
2021/04/30 06:04:30;;;;;;;8.30;7.60;;;;;;;7.19;61.46;95906.94;5075231;28;20048;-79
2021/04/30 06:06:56;;;;;;;7.85;7.25;;;;;;;7.17;61.44;95897.72;5074519;28;20033;-79
2021/04/30 06:09:22;;;;;;;7.90;7.38;;;;;;;7.16;61.63;95902.16;5074834;28;20033;-77
2021/04/30 06:11:49;;;;;;;7.82;7.22;;;;;;;7.17;61.77;95908.16;5073544;28;20028;-81
2021/04/30 06:14:15;;;;;;;7.97;7.35;;;;;;;7.19;61.86;95919.97;5073739;28;20043;-79
2021/04/30 06:16:41;;;;;;;8.10;7.40;;;;;;;7.20;61.79;95921.59;5074720;28;20037;-79
2021/04/30 06:19:07;;;;;;;8.32;7.63;;;;;;;7.19;61.66;95922.59;5075061;28;20052;-78
2021/04/30 06:21:34;;;;;;;8.38;7.40;;;;;;;7.18;61.75;95912.34;5074317;28;20041;-79
2021/04/30 06:24:01;;;;;;;8.52;7.78;;;;;;;7.17;61.90;95908.97;5074744;28;20044;-79
2021/04/30 06:26:28;;;;;;;7.97;7.38;;;;;;;7.20;61.98;95910.34;5075018;28;20049;-79
2021/04/30 06:28:55;;;;;;;8.30;7.60;;;;;;;7.20;61.96;95905.13;5074366;28;20043;-78
2021/04/30 06:31:22;;;;;;;8.20;7.47;;;;;;;7.25;61.98;95906.09;5074044;28;20039;-79
2021/04/30 06:33:49;;;;;;;7.80;7.13;;;;;;;7.30;62.05;95910.69;5074048;28;20044;-79
2021/04/30 06:36:15;;;;;;;7.50;7.00;;;;;;;7.36;62.00;95898.63;5074016;28;20484;-79
2021/04/30 06:38:42;;;;;;;8.07;7.38;;;;;;;7.41;61.87;95907.44;5074103;28;20028;-79
2021/04/30 06:41:09;;;;;;;8.27;7.45;;;;;;;7.44;61.83;95900.97;5074146;28;20413;-79
2021/04/30 06:43:35;;;;;;;8.68;7.38;;;;;;;7.48;61.86;95912.59;5056148;28;20047;-79
2021/04/30 06:46:01;;;;;;;8.13;7.43;;;;;;;7.49;61.78;95909.75;5073382;28;20047;-79
2021/04/30 06:48:27;;;;;;;8.15;7.55;;;;;;;7.50;61.90;95913.19;5071517;28;20049;-79
2021/04/30 06:50:54;;;;;;;8.30;7.60;;;;;;;7.52;62.11;95919.00;5074381;28;20052;-79
2021/04/30 06:53:20;;;;;;;8.18;7.40;;;;;;;7.52;61.94;95919.78;5073926;28;20036;-78
2021/04/30 06:55:46;;;;;;;8.02;7.20;;;;;;;7.53;61.87;95916.16;5074061;28;20397;-79
2021/04/30 06:58:12;;;;;;;8.07;7.30;;;;;;;7.55;61.97;95913.34;5074071;28;20028;-79
2021/04/30 07:00:39;;;;;;;8.48;7.68;;;;;;;7.53;62.06;95910.13;5073900;28;20040;-79
2021/04/30 07:03:05;;;;;;;7.95;7.25;;;;;;;7.53;61.85;95918.75;5073735;28;20036;-79
2021/04/30 07:05:32;;;;;;;7.85;7.25;;;;;;;7.54;61.98;95906.53;5073372;28;20055;-79
2021/04/30 07:08:01;;;;;;;7.72;7.03;;;;;;;7.56;62.10;95896.69;5073485;28;20044;-77
2021/04/30 07:10:29;;;;;;;8.15;7.45;;;;;;;7.61;62.16;95894.22;5073240;28;20037;-78
2021/04/30 07:12:55;;;;;;;7.95;7.30;;;;;;;7.66;61.92;95894.38;5073235;28;20032;-79
2021/04/30 07:15:21;;;;;;;8.85;7.95;;;;;;;7.65;61.72;95886.78;5073085;28;20047;-78
2021/04/30 07:17:48;;;;;;;8.00;7.25;;;;;;;7.66;61.52;95883.13;5073264;28;20420;-79
2021/04/30 07:20:14;;;;;;;7.55;6.88;;;;;;;7.67;61.63;95884.75;5073404;28;20040;-78
2021/04/30 07:22:41;;;;;;;8.30;7.60;;;;;;;7.71;61.57;95867.66;5073244;28;20033;-78
2021/04/30 07:25:08;;;;;;;7.65;7.05;;;;;;;7.77;61.58;95877.25;5073070;28;20071;-78
2021/04/30 07:27:34;;;;;;;8.15;7.35;;;;;;;7.83;61.36;95883.41;5073366;28;20487;-79
2021/04/30 07:30:01;;;;;;;7.80;7.00;;;;;;;7.88;61.31;95894.03;5073086;28;20042;-79
2021/04/30 07:32:27;;;;;;;7.75;6.95;;;;;;;7.89;61.02;95882.56;5073485;28;20044;-78
2021/04/30 07:34:53;;;;;;;7.32;6.72;;;;;;;7.90;60.87;95861.47;5073484;28;20059;-78
2021/04/30 07:37:19;;;;;;;8.32;7.50;;;;;;;7.95;61.01;95868.63;5073082;28;20028;-79
2021/04/30 07:39:45;;;;;;;7.47;6.78;;;;;;;7.98;60.85;95883.88;5073082;28;20048;-79
2021/04/30 07:42:13;;;;;;;6.97;6.38;;;;;;;7.98;60.56;95893.50;5073073;28;20043;-79
2021/04/30 07:44:39;;;;;;;7.55;6.88;;;;;;;7.95;60.56;95894.75;5073269;28;20037;-79
2021/04/30 07:47:05;;;;;;;7.57;6.85;;;;;;;7.92;60.38;95893.38;5071704;28;20048;-79
2021/04/30 07:49:32;;;;;;;7.43;6.75;;;;;;;7.94;60.54;95895.78;5073697;28;20057;-79
2021/04/30 07:51:58;;;;;;;6.45;5.88;;;;;;;7.97;60.71;95897.94;5072885;28;20402;-78
2021/04/30 07:54:25;;;;;;;6.80;6.18;;;;;;;8.06;60.59;95899.28;5073016;28;20041;-78
2021/04/30 07:56:51;;;;;;;7.10;6.50;;;;;;;8.13;60.46;95894.78;5072961;28;20032;-78
2021/04/30 07:59:17;;;;;;;7.60;6.80;;;;;;;8.12;60.20;95901.00;5072158;28;20040;-77
2021/04/30 08:01:44;;;;;;;7.38;6.18;;;;;;;8.07;60.00;95910.53;5073173;28;20044;-78
2021/04/30 08:04:10;;;;;;;7.32;6.63;;;;;;;8.01;59.97;95911.38;5073062;28;20036;-78
2021/04/30 08:06:38;;;;;;;8.13;6.90;;;;;;;7.99;59.90;95911.59;5072034;28;20366;-78
2021/04/30 08:09:05;;;;;;;6.95;6.35;;;;;;;7.95;59.80;95904.41;5072739;28;20062;-78
2021/04/30 08:11:34;;;;;;;7.72;6.72;;;;;;;7.92;59.75;95910.84;5072746;28;20096;-78
2021/04/30 08:14:01;;;;;;;7.53;6.82;;;;;;;7.89;59.95;95914.66;5073119;28;20024;-78
2021/04/30 08:16:27;;;;;;;7.30;6.72;;;;;;;7.91;59.90;95907.44;5072574;28;20067;-78
2021/04/30 08:18:54;;;;;;;6.70;6.20;;;;;;;7.92;59.88;95893.38;5073013;28;20036;-78
2021/04/30 08:21:20;;;;;;;6.90;6.30;;;;;;;7.93;59.73;95884.50;5072651;28;20040;-78
2021/04/30 08:23:46;;;;;;;7.07;6.47;;;;;;;7.96;59.82;95870.25;5059628;28;20033;-78
2021/04/30 08:26:13;;;;;;;8.15;6.32;;;;;;;7.98;59.60;95878.66;5072703;28;20041;-78
2021/04/30 08:28:39;;;;;;;7.15;6.55;;;;;;;7.99;59.57;95879.47;5072341;28;20063;-77
2021/04/30 08:31:05;;;;;;;8.00;7.30;;;;;;;7.98;59.42;95868.22;5073062;28;20040;-78
2021/04/30 08:33:31;;;;;;;7.28;6.68;;;;;;;7.98;59.59;95849.13;5072551;28;20044;-78
2021/04/30 08:35:58;;;;;;;7.05;6.53;;;;;;;8.04;59.49;95843.03;5074104;28;20171;-78
2021/04/30 08:38:24;;;;;;;7.80;7.00;;;;;;;8.15;59.44;95855.41;5076052;28;20048;-78
2021/04/30 08:40:50;;;;;;;7.50;6.80;;;;;;;8.21;59.30;95872.81;5076690;28;20045;-77
2021/04/30 08:43:17;;;;;;;7.00;6.45;;;;;;;8.25;59.20;95870.56;5076646;28;20372;-78
2021/04/30 08:45:44;;;;;;;7.72;7.13;;;;;;;8.20;58.95;95865.19;5076625;28;20033;-78
2021/04/30 08:48:14;;;;;;;7.72;6.95;;;;;;;8.19;58.84;95867.00;5075707;28;20056;-78
2021/04/30 08:50:43;;;;;;;7.47;6.85;;;;;;;8.11;58.70;95877.75;5076379;28;20045;-78
2021/04/30 08:53:10;;;;;;;7.30;6.70;;;;;;;8.05;58.83;95894.28;5076301;28;20043;-79
2021/04/30 08:55:36;;;;;;;7.30;6.70;;;;;;;7.99;58.81;95895.91;5075862;28;20033;-78
2021/04/30 08:58:09;;;;;;;7.78;6.90;;;;;;;7.92;58.68;95893.38;5076489;28;20032;-79
2021/04/30 09:00:36;;;;;;;8.05;7.10;;;;;;;7.83;58.67;95902.50;5064384;28;20048;-79
2021/04/30 09:03:04;;;;;;;8.07;7.38;;;;;;;7.78;58.84;95893.69;5074805;28;20032;-79
2021/04/30 09:05:31;;;;;;;7.55;6.95;;;;;;;7.68;58.84;95887.13;5076095;28;20414;-79
2021/04/30 09:07:59;;;;;;;8.23;7.53;;;;;;;7.64;59.06;95895.59;5075580;28;20047;-79
2021/04/30 09:10:27;;;;;;;8.35;7.15;;;;;;;7.59;58.98;95900.66;5075303;28;20045;-79
2021/04/30 09:13:07;;;;;;;7.50;6.90;;;;;;;7.50;59.22;95887.88;5075148;28;20052;-79
2021/04/30 09:15:34;;;;;;;7.88;7.18;;;;;;;7.48;59.13;95876.84;5075553;28;20044;-79
2021/04/30 09:18:19;;;;;;;7.35;6.70;;;;;;;7.45;58.54;95879.09;5075556;28;20036;-78
2021/04/30 09:20:47;;;;;;;6.82;6.25;;;;;;;7.40;59.10;95884.94;5075718;28;20036;-78
2021/04/30 09:23:42;;;;;;;7.03;6.43;;;;;;;7.34;59.56;95890.22;5075910;28;20111;-78
2021/04/30 09:26:24;;;;;;;;;;;;;;;7.27;59.58;95880.63;5076405;28;20052;-78
2021/04/30 09:28:57;;;;;;;7.10;6.50;;;;;;;7.24;59.50;95873.19;5065253;28;19915;-79
2021/04/30 09:31:44;;;;;;;6.70;6.13;;;;;;;7.25;59.71;95874.81;5075122;28;20037;-78
2021/04/30 09:34:34;;;;;;;7.82;6.78;;;;;;;7.32;59.54;95875.56;5074750;28;20048;-78
2021/04/30 09:37:13;;;;;;;7.45;6.75;;;;;;;7.36;59.26;95877.75;5063202;28;20044;-79
2021/04/30 09:39:58;;;;;;;6.70;6.20;;;;;;;7.30;59.34;95874.97;5075639;28;20469;-78
2021/04/30 09:42:28;;;;;;;6.50;6.00;;;;;;;7.30;59.16;95879.38;5075733;28;20400;-79
2021/04/30 09:45:00;;;;;;;7.07;6.47;;;;;;;7.32;59.31;95874.75;5075021;28;20382;-79
2021/04/30 09:47:29;;;;;;;6.47;5.93;;;;;;;7.40;59.20;95884.94;5075445;28;20040;-79
2021/04/30 09:49:58;;;;;;;6.15;5.65;;;;;;;7.42;59.35;95871.69;5075176;28;20041;-79
2021/04/30 09:52:26;;;;;;;7.15;6.43;;;;;;;7.43;59.43;95875.88;5074985;28;20063;-79
2021/04/30 09:54:59;;;;;;;7.13;6.43;;;;;;;7.45;59.73;95872.06;5073815;28;20142;-78
2021/04/30 09:57:26;;;;;;;7.50;6.90;;;;;;;7.47;59.31;95884.88;5075399;28;20024;-79
2021/04/30 10:00:11;;;;;;;6.72;6.13;;;;;;;7.43;59.45;95884.53;5075203;28;20044;-79
2021/04/30 10:02:38;;;;;;;6.88;6.38;;;;;;;7.35;59.34;95879.56;5074699;28;20028;-79
2021/04/30 10:05:09;;;;;;;8.15;6.72;;;;;;;7.32;59.78;95878.16;5075043;28;20040;-79
2021/04/30 10:07:37;;;;;;;7.10;6.50;;;;;;;7.29;59.47;95885.63;5074712;28;20384;-79
2021/04/30 10:10:12;;;;;;;6.95;6.40;;;;;;;7.25;59.47;95894.88;5074692;28;20043;-79
2021/04/30 10:12:43;;;;;;;7.28;6.68;;;;;;;7.21;59.85;95904.13;5074707;28;20396;-79
2021/04/30 10:15:11;;;;;;;7.90;7.30;;;;;;;7.10;60.00;95901.19;5073881;28;20040;-79
2021/04/30 10:17:39;;;;;;;6.78;6.28;;;;;;;7.06;60.08;95900.00;5074197;28;20036;-79
2021/04/30 10:20:12;;;;;;;9.23;7.40;;;;;;;6.97;60.70;95911.69;5074980;28;20059;-79
2021/04/30 10:22:41;;;;;;;8.63;7.82;;;;;;;6.91;60.81;95912.50;5074143;28;20052;-80
2021/04/30 10:25:10;;;;;;;7.93;7.30;;;;;;;6.84;61.29;95909.13;5075150;28;20028;-80
2021/04/30 10:27:52;;;;;;;8.30;7.50;;;;;;;6.74;62.72;95917.41;5074449;28;20043;-79
2021/04/30 10:30:36;;;;;;;8.05;7.35;;;;;;;6.60;64.12;95931.47;5074596;28;20048;-79
2021/04/30 10:33:17;;;;;;;8.75;8.02;;;;;;;6.48;65.01;95932.09;5073917;28;20056;-78
2021/04/30 10:35:59;;;;;;;9.10;8.13;;;;;;;6.36;65.06;95931.09;5073719;28;20051;-77
2021/04/30 10:38:28;;;;;;;9.52;8.63;;;;;;;6.27;63.98;95909.69;5074003;28;20056;-76
2021/04/30 10:41:10;;;;;;;9.90;9.00;;;;;;;6.15;67.15;95913.91;5072752;28;20068;-76
2021/04/30 10:43:38;;;;;;;10.93;9.85;;;;;;;6.09;64.39;95915.53;5074183;28;20437;-76
2021/04/30 10:46:13;;;;;;;9.77;8.77;;;;;;;6.03;66.25;95929.38;5074049;28;20047;-76
2021/04/30 10:49:05;;;;;;;11.07;10.07;;;;;;;5.99;68.28;95930.78;5072426;28;20048;-76
2021/04/30 10:51:36;;;;;;;11.80;10.70;;;;;;;5.94;68.20;95929.72;5073961;28;20057;-75
2021/04/30 10:54:22;;;;;;;10.68;9.60;;;;;;;5.88;68.64;95933.97;5074219;28;20045;-75
2021/04/30 10:57:09;;;;;;;11.63;10.60;;;;;;;5.77;68.91;95943.13;5060886;28;20024;-75
2021/04/30 10:59:35;;;;;;;10.45;9.52;;;;;;;5.69;66.21;95938.94;5073446;28;20051;-75
2021/04/30 11:02:33;;;;;;;10.70;9.80;;;;;;;5.64;71.46;95953.53;5074070;28;20033;-75
2021/04/30 11:05:05;;;;;;;11.00;9.90;;;;;;;5.60;68.86;95949.72;5060242;28;20473;-76
2021/04/30 11:07:45;;;;;;;11.73;10.63;;;;;;;5.59;70.69;95946.34;5073653;28;20039;-76
2021/04/30 11:10:20;;;;;;;11.27;10.27;;;;;;;5.55;71.00;95946.94;5073868;28;20037;-76
2021/04/30 11:12:57;;;;;;;11.60;10.50;;;;;;;5.51;68.66;95936.13;5073849;28;20055;-76
2021/04/30 11:15:32;;;;;;;12.25;11.15;;;;;;;5.47;70.75;95940.91;5063557;28;20032;-76
2021/04/30 11:18:02;;;;;;;12.93;11.73;;;;;;;5.48;69.11;95931.31;5073095;28;20036;-76
2021/04/30 11:20:31;;;;;;;12.07;10.98;;;;;;;5.54;69.96;95934.91;5073627;28;20048;-76
2021/04/30 11:23:25;;;;;;;11.80;10.70;;;;;;;5.61;73.30;95936.53;5073638;28;20036;-76
2021/04/30 11:25:58;;;;;;;12.10;11.00;;;;;;;5.66;72.44;95939.34;5073172;28;20036;-76
2021/04/30 11:28:30;;;;;;;12.38;11.23;;;;;;;5.67;70.72;95933.16;5073555;28;20029;-76
2021/04/30 11:31:11;;;;;;;11.98;10.98;;;;;;;5.60;73.06;95944.53;5073199;28;20035;-76
2021/04/30 11:33:42;;;;;;;12.90;11.60;;;;;;;5.53;71.11;95941.94;5073094;28;20036;-76
2021/04/30 11:36:12;;;;;;;12.27;11.02;;;;;;;5.43;71.76;95957.91;5073682;28;20033;-76
2021/04/30 11:38:45;;;;;;;12.18;10.98;;;;;;;5.36;71.08;95962.31;5072752;28;20052;-76
2021/04/30 11:41:13;;;;;;;12.23;11.13;;;;;;;5.31;71.73;95962.06;5073560;28;20043;-76
2021/04/30 11:43:51;;;;;;;13.05;11.75;;;;;;;5.29;72.36;95977.06;5063372;28;20028;-76
2021/04/30 11:46:18;;;;;;;12.93;11.63;;;;;;;5.29;72.37;95971.88;5062370;28;20461;-76
2021/04/30 11:48:46;;;;;;;12.75;11.57;;;;;;;5.33;72.76;95996.47;5071384;28;20048;-76
2021/04/30 11:51:14;;;;;;;11.82;10.82;;;;;;;5.30;72.47;95996.88;5073347;28;20408;-76